Terminal Aerodrome Forecast
Issued by NWS

Home | Current Version | Previous Version | Text Only | Print | Product List | Glossary On
Versions: 1 2 3 4 5 6 7 8 9 10 11 12 13 14
000
FTPQ31 PGUM 200526
TAFGUM
TAF

TAF
PTRO 200526Z 2006/2106 24006KT P6SM VCSH SCT016 BKN120
      TEMPO 2006/2010 VRB05KT 3SM SHRA BKN016 OVC050=

USA.gov is the U.S. government's official web portal to all federal, state and local government web resources and services.